Airport Name : Naha

Other Name : Naha

ICAO : ROAH

IATA : OKA

FAA :

Latitude : 26.195814

Longitude : 127.645869

Country : Japan

Local Date and Time : 6/19/2018 3:49:00 AM

 

TAF (Terminal Aerodrome Forecast)

TAF ROAH 181707Z 1818/2000 19013KT 9999 FEW010 SCT030

 

METAR (METeorological Aerodrome Report)

ROAH 181830Z 16009KT 9999 VCSH FEW008 BKN110 28/26 Q1007 RMK 2ST008 7AC110 A2975

ROAH 181800Z 18008KT 9999 FEW008 BKN140 28/26 Q1007 RMK 1ST008 7AC140 A2976

ROAH 181730Z 16009KT 9999 FEW006 BKN140 28/26 Q1007 RMK 2ST006 7AC140 A2975

ROAH 181700Z 18008KT 9999 FEW008 BKN120 28/26 Q1007 RMK 1ST008 7AC120 A2976

ROAH 181630Z 17006KT 9999 FEW008 BKN100 28/26 Q1007 RMK 1ST008 7AC100 A2976

ROAH 181600Z 17004KT 9999 FEW008 BKN100 28/26 Q1008 RMK 1ST008 7AC100 A2977

ROAH 181530Z 21008KT 9999 FEW008 SCT100 BKN160 28/26 Q1008 RMK 1ST008 3AC100 7AC160 A2978

ROAH 181500Z 21009KT 9999 FEW008 BKN160 28/26 Q1008 RMK 1ST008 7AC160 A2979